Huvudsida
METAR-TAF:

METAR-TAF

Flygplatser :

Lviv, Ukraina

latitud: 49-49N, longitud: 023-57E, höjd: 319 m

Aktuellt väderrapport

Denna rapport gjordes för 27 minuter sedan, klockan 06:00 UTC
Stilla vind
Temperatur 21°C
Fuktighet 78%
Tryck 1019 hPa
Sikt 10 km eller mer
Inga moln under 1 500 m eller inga cumulonimbus

METAR: UKLL 200600Z 00000MPS CAVOK 21/17 Q1019 R13/D NOSIG

Tid: 09:27 (06:27 UTC)

Väderprognos

Denna rapport gjordes för 1 timme och 24 minuter sedan, klockan 05:03 UTC
Prognos gäller från 20 kl. 06 UTC till 21 kl. 06 UTC
Vind 8 kt från syd
Sikt 10 km eller mer
Spridda moln på en höjd av 3000 ft
Blir
från 20 kl. 20 UTC till 20 kl. 22 UTC
Vind 2 kt varierande vindriktning
Sikt: 3000 m
Spridda moln på en höjd av 1000 ft
fuktdis

TAF: UKLL 200503Z 2006/2106 18004MPS 9999 SCT030 TX29/2011Z TN17/2103Z BECMG 2020/2022 VRB01MPS 3000 BR SCT010

Aktuella väderrapporter och prognoser från 4000 flygplatser (METAR- och TAF-rapporter).

De tillgängliga stationerna syns som gula och röda prickar på kartan.

För musen över prickarna för att se namnen på stationerna.

Klicka sedan för att få väderrapporter och prognoser.

För att ändra kartan: Klicka på de gröna knapparna med ett svart kors på för att zooma in; den gröna knappen med ett streck på för att zooma ut; eller på de gröna pilarna för angränsande kartor.


METAR-TAF: